createdAt,value
2023-11-19T00:01:10.088Z,1.60
2023-11-19T00:03:37.210Z,1.50
2023-11-19T00:06:05.602Z,1.50
2023-11-19T00:08:32.609Z,1.50
2023-11-19T00:10:59.636Z,1.40
2023-11-19T00:13:27.216Z,1.40
2023-11-19T00:15:54.270Z,1.40
2023-11-19T00:18:21.879Z,1.30
2023-11-19T00:20:48.846Z,1.30
2023-11-19T00:23:15.879Z,1.30
2023-11-19T00:25:42.874Z,1.30
2023-11-19T00:28:09.911Z,1.30
2023-11-19T00:30:36.869Z,1.30
2023-11-19T00:33:03.876Z,1.30
2023-11-19T00:35:32.833Z,1.30
2023-11-19T00:37:59.892Z,1.30
2023-11-19T00:40:26.988Z,1.30
2023-11-19T00:42:54.000Z,1.20
2023-11-19T00:45:21.120Z,1.30
2023-11-19T00:47:48.430Z,1.20
2023-11-19T00:50:15.454Z,1.20
2023-11-19T00:52:42.852Z,1.10
2023-11-19T00:55:10.016Z,1.10
2023-11-19T00:57:37.359Z,1.10
2023-11-19T01:00:20.629Z,1.10
2023-11-19T01:02:50.956Z,1.00
2023-11-19T01:05:22.350Z,1.00
2023-11-19T01:07:49.916Z,1.00
2023-11-19T01:10:17.303Z,1.00
2023-11-19T01:12:44.343Z,1.00
2023-11-19T01:15:11.379Z,1.00
2023-11-19T01:17:39.226Z,1.00
2023-11-19T01:20:07.724Z,1.00
2023-11-19T01:22:34.858Z,1.00
2023-11-19T01:25:01.878Z,1.00
2023-11-19T01:27:28.825Z,1.00
2023-11-19T01:29:55.945Z,0.90
2023-11-19T01:32:25.136Z,0.90
2023-11-19T01:34:52.091Z,0.90
2023-11-19T01:37:19.122Z,0.90
2023-11-19T01:39:58.717Z,0.90
2023-11-19T01:42:26.848Z,0.90
2023-11-19T01:45:00.759Z,0.90
2023-11-19T01:47:29.743Z,0.90
2023-11-19T01:49:58.242Z,1.30
2023-11-19T01:52:26.490Z,1.00
2023-11-19T01:54:55.715Z,0.90
2023-11-19T01:57:24.341Z,0.90
2023-11-19T01:59:53.417Z,0.90
2023-11-19T02:02:23.735Z,0.80
2023-11-19T02:04:52.380Z,0.80
2023-11-19T02:07:19.877Z,0.80
2023-11-19T02:09:46.809Z,0.80
2023-11-19T02:12:13.842Z,0.80
2023-11-19T02:14:41.446Z,0.80
2023-11-19T02:17:08.460Z,0.80
2023-11-19T02:19:35.434Z,0.80
2023-11-19T02:22:02.627Z,0.70
2023-11-19T02:24:32.424Z,0.70
2023-11-19T02:27:17.809Z,0.70
2023-11-19T02:29:44.830Z,0.70
2023-11-19T02:32:14.640Z,0.80
2023-11-19T02:34:41.687Z,0.70
2023-11-19T02:37:09.290Z,0.70
2023-11-19T02:39:36.256Z,0.70
2023-11-19T02:42:03.196Z,0.60
2023-11-19T02:44:31.537Z,0.70
2023-11-19T02:47:00.614Z,0.60
2023-11-19T02:49:27.639Z,0.70
2023-11-19T02:51:54.651Z,0.60
2023-11-19T02:54:22.568Z,0.60
2023-11-19T02:56:56.350Z,0.60
2023-11-19T02:59:29.016Z,0.60
2023-11-19T03:01:56.431Z,0.70
2023-11-19T03:04:24.382Z,0.70
2023-11-19T03:06:51.298Z,0.60
2023-11-19T03:09:18.247Z,0.60
2023-11-19T03:11:45.107Z,0.60
2023-11-19T03:14:12.220Z,0.60
2023-11-19T03:16:39.202Z,0.60
2023-11-19T03:19:06.263Z,0.50
2023-11-19T03:21:33.348Z,0.60
2023-11-19T03:24:01.258Z,0.50
2023-11-19T03:26:28.792Z,0.60
2023-11-19T03:28:56.899Z,0.50
2023-11-19T03:31:24.095Z,0.50
2023-11-19T03:33:51.152Z,0.60
2023-11-19T03:36:18.601Z,-0.60
2023-11-19T03:38:45.601Z,0.50
2023-11-19T03:41:16.291Z,0.50
2023-11-19T03:43:43.485Z,0.50
2023-11-19T03:46:23.178Z,0.50
2023-11-19T03:48:51.187Z,0.50
2023-11-19T03:51:18.801Z,0.40
2023-11-19T03:53:48.848Z,0.40
2023-11-19T03:56:15.864Z,0.40
2023-11-19T03:58:43.210Z,0.40
2023-11-19T04:01:17.122Z,0.40
2023-11-19T04:06:17.082Z,0.30
2023-11-19T04:08:44.140Z,0.30
2023-11-19T04:11:11.749Z,0.30
2023-11-19T04:13:38.883Z,0.30
2023-11-19T04:16:06.241Z,0.20
2023-11-19T04:18:33.297Z,0.30
2023-11-19T04:21:00.412Z,0.70
2023-11-19T04:23:27.292Z,0.30
2023-11-19T04:25:54.378Z,0.30
2023-11-19T04:28:21.338Z,0.20
2023-11-19T04:30:48.345Z,0.30
2023-11-19T04:33:16.013Z,0.20
2023-11-19T04:35:42.987Z,0.20
2023-11-19T04:38:09.975Z,0.30
2023-11-19T04:40:37.134Z,0.30
2023-11-19T04:43:04.135Z,0.30
2023-11-19T04:45:31.125Z,0.30
2023-11-19T04:47:58.094Z,0.30
2023-11-19T04:50:26.960Z,0.30
2023-11-19T04:52:54.913Z,1.40
2023-11-19T04:55:21.903Z,0.40
2023-11-19T04:57:48.998Z,0.30
2023-11-19T05:00:17.804Z,0.30
2023-11-19T05:02:45.118Z,0.30
2023-11-19T05:05:12.816Z,0.30
2023-11-19T05:07:39.949Z,0.40
2023-11-19T05:10:08.201Z,0.40
2023-11-19T05:12:35.264Z,0.30
2023-11-19T05:15:02.262Z,0.40
2023-11-19T05:17:29.521Z,0.40
2023-11-19T05:19:56.570Z,0.40
2023-11-19T05:22:23.978Z,3.00
2023-11-19T05:24:51.053Z,0.40
2023-11-19T05:27:18.077Z,0.40
2023-11-19T05:29:45.186Z,0.40
2023-11-19T05:32:12.597Z,0.40
2023-11-19T05:34:51.758Z,0.30
2023-11-19T05:37:19.760Z,0.30
2023-11-19T05:39:47.122Z,0.30
2023-11-19T05:42:14.170Z,0.30
2023-11-19T05:44:41.906Z,0.40
2023-11-19T05:47:09.269Z,0.40
2023-11-19T05:49:36.358Z,0.40
2023-11-19T05:52:04.613Z,0.40
2023-11-19T05:54:32.728Z,0.90
2023-11-19T05:56:59.751Z,0.40
2023-11-19T05:59:27.174Z,0.40
2023-11-19T06:01:54.293Z,0.40
2023-11-19T06:04:21.444Z,0.40
2023-11-19T06:06:48.475Z,0.40
2023-11-19T06:09:15.534Z,0.30
2023-11-19T06:11:42.518Z,0.40
2023-11-19T06:14:09.524Z,0.40
2023-11-19T06:16:38.205Z,0.40
2023-11-19T06:19:05.566Z,0.50
2023-11-19T06:21:32.747Z,0.50
2023-11-19T06:24:00.446Z,0.40
2023-11-19T06:26:28.083Z,0.40
2023-11-19T06:28:55.350Z,0.50
2023-11-19T06:31:22.794Z,0.40
2023-11-19T06:33:49.755Z,0.50
2023-11-19T06:36:17.613Z,0.50
2023-11-19T06:38:45.099Z,0.50
2023-11-19T06:41:12.426Z,0.50
2023-11-19T06:46:19.116Z,0.60
2023-11-19T06:48:46.529Z,0.60
2023-11-19T06:51:14.181Z,0.60
2023-11-19T06:53:41.475Z,0.70
2023-11-19T06:56:22.931Z,0.80
2023-11-19T06:58:50.795Z,0.80
2023-11-19T07:01:19.435Z,0.80
2023-11-19T07:03:50.541Z,0.80
2023-11-19T07:06:17.770Z,0.90
2023-11-19T07:08:48.441Z,0.90
2023-11-19T07:11:17.437Z,1.00
2023-11-19T07:13:44.489Z,0.90
2023-11-19T07:16:11.448Z,1.00
2023-11-19T07:18:38.510Z,1.00
2023-11-19T07:21:06.435Z,1.10
2023-11-19T07:23:35.273Z,1.10
2023-11-19T07:26:02.784Z,1.20
2023-11-19T07:28:29.910Z,1.20
2023-11-19T07:30:57.708Z,1.20
2023-11-19T07:33:24.787Z,2.80
2023-11-19T07:35:52.187Z,1.20
2023-11-19T07:38:19.297Z,1.20
2023-11-19T07:40:56.977Z,1.20
2023-11-19T07:43:24.373Z,1.20
2023-11-19T07:45:51.475Z,1.30
2023-11-19T07:48:23.709Z,1.30
2023-11-19T07:50:54.032Z,1.40
2023-11-19T07:53:21.433Z,1.40
2023-11-19T07:55:48.379Z,1.40
2023-11-19T07:58:15.357Z,1.50
2023-11-19T08:00:42.570Z,1.50
2023-11-19T08:03:09.973Z,1.50
2023-11-19T08:05:37.615Z,1.60
2023-11-19T08:08:04.854Z,1.60
2023-11-19T08:10:31.747Z,1.50
2023-11-19T08:12:58.726Z,1.60
2023-11-19T08:17:55.646Z,1.70
2023-11-19T08:20:23.151Z,1.80
2023-11-19T08:22:50.236Z,1.70
2023-11-19T08:25:17.337Z,1.90
2023-11-19T08:27:44.364Z,1.90
2023-11-19T08:30:11.964Z,1.90
2023-11-19T08:32:39.050Z,1.90
2023-11-19T08:35:06.754Z,2.00
2023-11-19T08:37:34.064Z,2.00
2023-11-19T08:40:02.065Z,2.00
2023-11-19T08:42:28.923Z,2.00
2023-11-19T08:44:55.957Z,1.90
2023-11-19T08:47:26.113Z,2.00
2023-11-19T08:52:23.921Z,2.10
2023-11-19T08:54:51.002Z,2.20
2023-11-19T08:57:18.041Z,2.20
2023-11-19T08:59:46.934Z,2.10
2023-11-19T09:02:14.011Z,2.20
2023-11-19T09:04:42.056Z,2.20
2023-11-19T09:07:10.902Z,2.20
2023-11-19T09:09:37.891Z,2.10
2023-11-19T09:12:05.241Z,2.20
2023-11-19T09:14:32.201Z,2.20
2023-11-19T09:16:59.427Z,2.20
2023-11-19T09:19:27.471Z,2.30
2023-11-19T09:21:55.050Z,2.30
2023-11-19T09:24:21.992Z,2.30
2023-11-19T09:26:49.143Z,2.40
2023-11-19T09:29:16.405Z,2.40
2023-11-19T09:31:43.371Z,2.40
2023-11-19T09:34:10.367Z,2.40
2023-11-19T09:36:37.567Z,2.40
2023-11-19T09:39:05.512Z,2.50
2023-11-19T09:41:33.990Z,2.50
2023-11-19T09:44:01.070Z,2.50
2023-11-19T09:46:30.959Z,2.50
2023-11-19T09:49:00.451Z,2.60
2023-11-19T09:51:27.497Z,2.60
2023-11-19T09:53:54.694Z,2.60
2023-11-19T09:56:21.894Z,2.60
2023-11-19T09:58:48.935Z,2.70
2023-11-19T10:03:49.088Z,2.80
2023-11-19T10:06:17.125Z,2.80
2023-11-19T10:08:45.023Z,2.80
2023-11-19T10:11:13.733Z,2.80
2023-11-19T10:13:41.000Z,5.80
2023-11-19T10:16:14.050Z,2.90
2023-11-19T10:18:54.075Z,2.90
2023-11-19T10:21:21.271Z,2.80
2023-11-19T10:23:58.377Z,2.90
2023-11-19T10:26:25.490Z,2.90
2023-11-19T10:28:52.496Z,2.90
2023-11-19T10:31:25.872Z,2.90
2023-11-19T10:33:53.971Z,3.40
2023-11-19T10:36:23.351Z,2.80
2023-11-19T10:38:56.276Z,2.80
2023-11-19T10:41:33.477Z,2.80
2023-11-19T10:44:01.064Z,2.80
2023-11-19T10:46:43.264Z,2.80
2023-11-19T10:49:11.824Z,2.60
2023-11-19T10:51:47.256Z,2.70
2023-11-19T10:54:16.686Z,2.60
2023-11-19T10:56:45.992Z,2.60
2023-11-19T11:01:46.913Z,2.50
2023-11-19T11:04:24.126Z,2.50
2023-11-19T11:06:52.629Z,2.50
2023-11-19T11:09:19.981Z,2.40
2023-11-19T11:11:48.929Z,2.40
2023-11-19T11:14:17.451Z,2.40
2023-11-19T11:16:45.617Z,2.50
2023-11-19T11:19:13.781Z,2.50
2023-11-19T11:21:45.176Z,2.50
2023-11-19T11:24:43.210Z,5.10
2023-11-19T11:27:38.345Z,2.50
2023-11-19T11:30:40.478Z,2.40
2023-11-19T11:33:30.839Z,2.40
2023-11-19T11:36:21.458Z,2.30
2023-11-19T11:38:51.187Z,2.30
2023-11-19T11:41:29.629Z,2.30
2023-11-19T11:43:58.020Z,2.20
2023-11-19T11:46:34.365Z,2.30
2023-11-19T11:49:06.565Z,2.30
2023-11-19T11:51:45.933Z,2.30
2023-11-19T11:54:32.026Z,2.30
2023-11-19T11:57:14.396Z,2.30
2023-11-19T11:59:51.795Z,2.20
2023-11-19T12:02:22.979Z,2.20
2023-11-19T12:04:53.366Z,2.10
2023-11-19T12:07:23.505Z,2.20
2023-11-19T12:10:10.207Z,2.20
2023-11-19T12:12:39.397Z,2.10
2023-11-19T12:15:11.504Z,2.20
2023-11-19T12:17:46.844Z,2.20
2023-11-19T12:20:14.149Z,2.40
2023-11-19T12:22:43.305Z,2.30
2023-11-19T12:25:15.453Z,2.30
2023-11-19T12:27:47.630Z,2.30
2023-11-19T12:30:22.823Z,2.40
2023-11-19T12:32:50.524Z,2.40
2023-11-19T12:35:17.683Z,2.40
2023-11-19T12:37:46.864Z,2.40
2023-11-19T12:40:18.294Z,2.40
2023-11-19T12:42:46.864Z,2.50
2023-11-19T12:45:14.819Z,2.40
2023-11-19T12:47:42.122Z,2.40
2023-11-19T12:50:10.778Z,2.50
2023-11-19T12:52:38.873Z,2.50
2023-11-19T12:57:56.160Z,2.50
2023-11-19T13:00:24.835Z,2.50
2023-11-19T13:02:55.964Z,2.50
2023-11-19T13:05:37.550Z,2.50
2023-11-19T13:08:09.808Z,2.60
2023-11-19T13:10:55.166Z,2.60
2023-11-19T13:13:22.204Z,2.60
2023-11-19T13:15:49.607Z,2.50
2023-11-19T13:18:18.345Z,3.70
2023-11-19T13:20:45.343Z,2.50
2023-11-19T13:23:12.412Z,2.50
2023-11-19T13:25:39.352Z,2.40
2023-11-19T13:28:07.126Z,2.40
2023-11-19T13:30:34.172Z,2.50
2023-11-19T13:33:02.179Z,2.40
2023-11-19T13:35:29.424Z,0.60
2023-11-19T13:37:56.354Z,2.40
2023-11-19T13:40:25.640Z,2.40
2023-11-19T13:42:53.038Z,2.40
2023-11-19T13:45:21.877Z,2.40
2023-11-19T13:47:48.957Z,2.40
2023-11-19T13:50:18.210Z,2.80
2023-11-19T13:52:48.529Z,3.80
2023-11-19T13:55:16.158Z,2.30
2023-11-19T13:57:44.712Z,2.40
2023-11-19T14:00:14.675Z,2.40
2023-11-19T14:02:42.357Z,2.40
2023-11-19T14:05:12.024Z,2.40
2023-11-19T14:07:40.689Z,4.30
2023-11-19T14:10:10.417Z,2.40
2023-11-19T14:12:41.181Z,2.30
2023-11-19T14:15:18.251Z,2.30
2023-11-19T14:17:45.690Z,2.40
2023-11-19T14:20:16.687Z,2.40
2023-11-19T14:22:45.283Z,4.70
2023-11-19T14:25:12.879Z,2.40
2023-11-19T14:27:41.962Z,2.40
2023-11-19T14:30:14.577Z,2.40
2023-11-19T14:32:44.966Z,2.40
2023-11-19T14:35:11.875Z,2.40
2023-11-19T14:37:39.674Z,2.40
2023-11-19T14:40:10.104Z,2.40
2023-11-19T14:42:38.142Z,2.40
2023-11-19T14:45:06.115Z,2.40
2023-11-19T14:47:34.181Z,2.40
2023-11-19T14:50:01.585Z,2.40
2023-11-19T14:52:28.676Z,2.30
2023-11-19T14:54:57.686Z,2.30
2023-11-19T14:57:24.779Z,2.30
2023-11-19T14:59:51.833Z,4.40
2023-11-19T15:02:19.404Z,2.30
2023-11-19T15:04:46.533Z,2.30
2023-11-19T15:07:13.803Z,5.40
2023-11-19T15:09:42.524Z,2.20
2023-11-19T15:12:10.195Z,2.20
2023-11-19T15:14:37.674Z,2.20
2023-11-19T15:17:05.047Z,2.20
2023-11-19T15:19:32.075Z,2.10
2023-11-19T15:21:58.998Z,2.10
2023-11-19T15:24:26.599Z,2.10
2023-11-19T15:26:53.664Z,2.10
2023-11-19T15:29:22.047Z,2.20
2023-11-19T15:31:50.158Z,2.20
2023-11-19T15:34:17.259Z,2.20
2023-11-19T15:36:44.481Z,2.20
2023-11-19T15:39:11.465Z,2.20
2023-11-19T15:41:41.520Z,2.10
2023-11-19T15:44:08.969Z,2.10
2023-11-19T15:46:35.934Z,2.10
2023-11-19T15:49:03.838Z,2.10
2023-11-19T15:51:30.801Z,2.10
2023-11-19T15:53:57.726Z,2.10
2023-11-19T15:56:24.715Z,4.10
2023-11-19T15:58:51.661Z,2.20
2023-11-19T16:01:19.314Z,2.20
2023-11-19T16:06:16.674Z,2.20
2023-11-19T16:08:44.364Z,2.20
2023-11-19T16:11:11.544Z,4.70
2023-11-19T16:13:38.613Z,2.20
2023-11-19T16:16:06.907Z,4.30
2023-11-19T16:18:34.577Z,2.20
2023-11-19T16:21:02.544Z,2.10
2023-11-19T16:23:29.530Z,2.20
2023-11-19T16:25:56.492Z,2.20
2023-11-19T16:28:25.197Z,2.20
2023-11-19T16:30:53.502Z,2.10
2023-11-19T16:33:28.522Z,2.20
2023-11-19T16:36:01.485Z,2.10
2023-11-19T16:38:29.682Z,2.20
2023-11-19T16:40:57.113Z,2.20
2023-11-19T16:43:24.879Z,2.20
2023-11-19T16:45:51.947Z,2.20
2023-11-19T16:48:18.998Z,2.20
2023-11-19T16:51:04.241Z,2.20
2023-11-19T16:53:31.809Z,2.20
2023-11-19T16:55:58.807Z,2.30
2023-11-19T16:58:25.742Z,2.20
2023-11-19T17:00:52.717Z,2.20
2023-11-19T17:03:19.859Z,2.20
2023-11-19T17:05:46.847Z,2.20
2023-11-19T17:08:13.781Z,2.20
2023-11-19T17:10:43.173Z,2.30
2023-11-19T17:13:10.394Z,2.20
2023-11-19T17:15:38.150Z,2.20
2023-11-19T17:18:05.952Z,2.30
2023-11-19T17:20:32.993Z,2.20
2023-11-19T17:22:59.998Z,2.30
2023-11-19T17:25:26.905Z,2.30
2023-11-19T17:27:53.842Z,2.30
2023-11-19T17:30:20.800Z,2.30
2023-11-19T17:32:47.968Z,2.30
2023-11-19T17:35:15.362Z,2.20
2023-11-19T17:37:42.635Z,2.20
2023-11-19T17:40:12.263Z,2.20
2023-11-19T17:42:39.218Z,2.20
2023-11-19T17:45:07.303Z,2.30
2023-11-19T17:47:34.372Z,2.30
2023-11-19T17:50:01.457Z,2.20
2023-11-19T17:52:28.463Z,2.30
2023-11-19T17:54:55.517Z,2.30
2023-11-19T17:57:22.825Z,2.20
2023-11-19T17:59:51.110Z,2.30
2023-11-19T18:02:19.672Z,2.30
2023-11-19T18:04:49.322Z,2.30
2023-11-19T18:07:18.255Z,2.30
2023-11-19T18:09:46.106Z,2.20
2023-11-19T18:12:16.611Z,2.30
2023-11-19T18:17:14.329Z,2.30
2023-11-19T18:19:41.694Z,2.20
2023-11-19T18:22:09.463Z,2.30
2023-11-19T18:24:37.814Z,2.30
2023-11-19T18:27:07.230Z,2.40
2023-11-19T18:29:36.660Z,2.30
2023-11-19T18:32:04.642Z,2.30
2023-11-19T18:34:31.858Z,2.30
2023-11-19T18:36:58.790Z,2.30
2023-11-19T18:39:26.070Z,2.30
2023-11-19T18:41:53.150Z,2.30
2023-11-19T18:44:20.475Z,2.40
2023-11-19T18:46:47.825Z,2.30
2023-11-19T18:49:14.763Z,3.20
2023-11-19T18:51:41.750Z,4.80
2023-11-19T18:54:09.445Z,2.40
2023-11-19T18:56:36.503Z,2.40
2023-11-19T18:59:04.744Z,2.40
2023-11-19T19:01:33.305Z,2.40
2023-11-19T19:04:00.571Z,2.40
2023-11-19T19:06:27.659Z,4.80
2023-11-19T19:08:54.647Z,2.40
2023-11-19T19:11:22.232Z,2.40
2023-11-19T19:13:49.236Z,2.40
2023-11-19T19:16:16.301Z,2.40
2023-11-19T19:18:43.737Z,2.30
2023-11-19T19:21:12.201Z,2.40
2023-11-19T19:23:39.150Z,2.30
2023-11-19T19:26:07.443Z,2.30
2023-11-19T19:28:38.414Z,2.30
2023-11-19T19:31:06.779Z,2.30
2023-11-19T19:33:34.030Z,2.30
2023-11-19T19:36:01.047Z,2.30
2023-11-19T19:38:28.077Z,2.30
2023-11-19T19:40:55.859Z,2.40
2023-11-19T19:43:22.835Z,2.40
2023-11-19T19:45:50.259Z,2.40
2023-11-19T19:48:17.295Z,2.40
2023-11-19T19:50:44.224Z,2.40
2023-11-19T19:53:12.024Z,2.40
2023-11-19T19:55:39.818Z,2.40
2023-11-19T19:58:08.646Z,2.40
2023-11-19T20:00:35.592Z,2.50
2023-11-19T20:03:03.880Z,2.40
2023-11-19T20:05:31.080Z,2.40
2023-11-19T20:08:00.354Z,2.40
2023-11-19T20:10:27.445Z,2.50
2023-11-19T20:12:54.628Z,2.40
2023-11-19T20:15:26.698Z,2.40
2023-11-19T20:17:53.786Z,2.40
2023-11-19T20:20:20.754Z,2.40
2023-11-19T20:22:48.733Z,2.40
2023-11-19T20:25:15.871Z,2.40
2023-11-19T20:27:42.999Z,2.50
2023-11-19T20:30:10.578Z,2.40
2023-11-19T20:32:38.557Z,1.90
2023-11-19T20:35:08.180Z,2.30
2023-11-19T20:37:38.695Z,2.40
2023-11-19T20:40:06.812Z,2.40
2023-11-19T20:42:36.047Z,2.40
2023-11-19T20:45:05.238Z,2.30
2023-11-19T20:47:32.233Z,2.40
2023-11-19T20:49:59.186Z,2.30
2023-11-19T20:52:26.169Z,2.40
2023-11-19T20:54:53.134Z,2.30
2023-11-19T20:57:20.501Z,2.40
2023-11-19T20:59:47.917Z,2.40
2023-11-19T21:02:16.585Z,2.40
2023-11-19T21:04:44.206Z,2.40
2023-11-19T21:07:11.921Z,3.80
2023-11-19T21:09:38.999Z,2.50
2023-11-19T21:12:06.770Z,2.40
2023-11-19T21:14:33.880Z,2.50
2023-11-19T21:17:01.217Z,2.40
2023-11-19T21:19:46.479Z,2.40
2023-11-19T21:22:14.447Z,2.50
2023-11-19T21:24:42.824Z,2.40
2023-11-19T21:27:09.878Z,2.40
2023-11-19T21:29:36.850Z,2.40
2023-11-19T21:32:04.082Z,2.40
2023-11-19T21:34:30.960Z,2.40
2023-11-19T21:36:57.880Z,2.40
2023-11-19T21:39:24.820Z,2.50
2023-11-19T21:41:55.568Z,2.40
2023-11-19T21:44:23.684Z,2.50
2023-11-19T21:46:50.678Z,2.40
2023-11-19T21:49:17.609Z,2.40
2023-11-19T21:51:44.625Z,2.40
2023-11-19T21:54:12.305Z,4.30
2023-11-19T21:56:39.679Z,2.40
2023-11-19T21:59:06.668Z,2.40
2023-11-19T22:01:33.935Z,2.40
2023-11-19T22:04:01.234Z,2.40
2023-11-19T22:06:28.516Z,2.40
2023-11-19T22:08:55.464Z,2.40
2023-11-19T22:11:25.324Z,2.40
2023-11-19T22:13:52.639Z,2.40
2023-11-19T22:16:19.596Z,2.40
2023-11-19T22:18:46.601Z,2.40
2023-11-19T22:21:13.697Z,2.40
2023-11-19T22:23:41.410Z,2.50
2023-11-19T22:26:08.329Z,4.30
2023-11-19T22:28:37.531Z,2.40
2023-11-19T22:31:05.016Z,2.40
2023-11-19T22:33:32.029Z,2.40
2023-11-19T22:35:59.941Z,2.40
2023-11-19T22:38:27.077Z,2.40
2023-11-19T22:40:54.222Z,2.50
2023-11-19T22:43:21.615Z,2.50
2023-11-19T22:45:48.545Z,2.50
2023-11-19T22:48:15.601Z,2.50
2023-11-19T22:50:42.545Z,2.50
2023-11-19T22:53:09.505Z,2.50
2023-11-19T22:55:36.650Z,2.50
2023-11-19T22:58:04.545Z,2.50
2023-11-19T23:00:31.700Z,2.50
2023-11-19T23:03:00.962Z,2.40
2023-11-19T23:05:29.243Z,2.50
2023-11-19T23:07:56.410Z,2.50
2023-11-19T23:10:24.404Z,2.50
2023-11-19T23:12:51.977Z,2.50
2023-11-19T23:15:19.215Z,2.50
2023-11-19T23:17:46.227Z,2.50
2023-11-19T23:20:17.353Z,2.50
2023-11-19T23:22:44.876Z,2.50
2023-11-19T23:25:12.189Z,2.50
2023-11-19T23:27:39.303Z,2.50
2023-11-19T23:30:07.031Z,2.50
2023-11-19T23:32:35.637Z,2.50
2023-11-19T23:35:04.213Z,2.50
2023-11-19T23:37:31.344Z,2.60
2023-11-19T23:39:58.443Z,2.50
2023-11-19T23:42:25.542Z,2.50
2023-11-19T23:44:52.456Z,3.90
2023-11-19T23:47:20.510Z,2.60
2023-11-19T23:49:47.702Z,2.60
2023-11-19T23:52:14.940Z,2.50
2023-11-19T23:54:41.930Z,2.60
2023-11-19T23:57:08.927Z,2.50
2023-11-19T23:59:37.790Z,2.60
